createdAt,value
2018-02-16T00:00:29.134Z,2.60
2018-02-16T00:02:56.633Z,2.50
2018-02-16T00:05:24.163Z,2.60
2018-02-16T00:07:51.665Z,2.50
2018-02-16T00:10:19.187Z,2.50
2018-02-16T00:12:47.454Z,2.50
2018-02-16T00:15:14.971Z,2.50
2018-02-16T00:17:42.474Z,2.50
2018-02-16T00:20:09.985Z,2.50
2018-02-16T00:22:37.478Z,2.50
2018-02-16T00:25:04.995Z,2.40
2018-02-16T00:27:32.495Z,2.50
2018-02-16T00:30:00.013Z,2.50
2018-02-16T00:32:27.522Z,2.40
2018-02-16T00:34:55.807Z,2.40
2018-02-16T00:37:24.078Z,2.50
2018-02-16T00:39:52.358Z,2.50
2018-02-16T00:42:20.622Z,2.50
2018-02-16T00:44:48.134Z,2.50
2018-02-16T00:47:15.634Z,2.60
2018-02-16T00:49:43.150Z,2.60
2018-02-16T00:52:10.649Z,2.70
2018-02-16T00:54:38.158Z,2.80
2018-02-16T00:57:05.649Z,2.80
2018-02-16T00:59:33.158Z,2.90
2018-02-16T01:02:00.658Z,2.90
2018-02-16T01:04:28.169Z,3.00
2018-02-16T01:06:55.657Z,3.00
2018-02-16T01:09:23.165Z,3.00
2018-02-16T01:11:51.426Z,3.00
2018-02-16T01:14:19.000Z,2.90
2018-02-16T01:16:47.332Z,2.90
2018-02-16T01:19:25.729Z,2.90
2018-02-16T01:21:54.144Z,2.90
2018-02-16T01:24:22.650Z,2.90
2018-02-16T01:26:50.911Z,2.70
2018-02-16T01:29:21.214Z,2.70
2018-02-16T01:31:48.706Z,2.60
2018-02-16T01:34:16.990Z,2.50
2018-02-16T01:36:45.257Z,2.60
2018-02-16T01:39:12.766Z,2.60
2018-02-16T01:41:40.258Z,2.80
2018-02-16T01:44:07.766Z,2.90
2018-02-16T01:46:35.261Z,2.80
2018-02-16T01:49:02.801Z,2.90
2018-02-16T01:51:30.338Z,3.10
2018-02-16T01:53:57.830Z,3.30
2018-02-16T01:56:25.337Z,3.50
2018-02-16T01:58:53.626Z,3.80
2018-02-16T02:01:21.146Z,3.80
2018-02-16T02:03:48.639Z,4.00
2018-02-16T02:06:16.153Z,4.00
2018-02-16T02:08:43.646Z,4.10
2018-02-16T02:11:11.934Z,4.30
2018-02-16T02:13:39.430Z,4.30
2018-02-16T02:16:07.050Z,4.40
2018-02-16T02:18:34.614Z,4.40
2018-02-16T02:21:02.132Z,4.50
2018-02-16T02:23:30.393Z,4.50
2018-02-16T02:25:57.982Z,4.50
2018-02-16T02:28:26.247Z,4.40
2018-02-16T02:30:54.534Z,4.60
2018-02-16T02:33:22.843Z,4.60
2018-02-16T02:35:50.386Z,4.60
2018-02-16T02:38:17.886Z,4.50
2018-02-16T02:40:45.402Z,4.50
2018-02-16T02:43:12.907Z,4.40
2018-02-16T02:45:40.473Z,4.40
2018-02-16T02:48:07.995Z,4.40
2018-02-16T02:50:35.540Z,4.40
2018-02-16T02:53:03.067Z,4.30
2018-02-16T02:55:31.358Z,4.30
2018-02-16T02:57:59.644Z,4.20
2018-02-16T03:00:27.215Z,4.20
2018-02-16T03:02:54.783Z,4.20
2018-02-16T03:05:22.283Z,4.20
2018-02-16T03:07:49.800Z,4.10
2018-02-16T03:10:17.298Z,4.20
2018-02-16T03:12:44.811Z,4.20
2018-02-16T03:15:12.380Z,4.10
2018-02-16T03:17:39.893Z,4.10
2018-02-16T03:20:08.154Z,4.00
2018-02-16T03:22:35.666Z,4.00
2018-02-16T03:25:03.162Z,3.90
2018-02-16T03:27:30.770Z,3.90
2018-02-16T03:29:58.334Z,3.90
2018-02-16T03:32:25.845Z,3.90
2018-02-16T03:34:53.441Z,3.80
2018-02-16T03:37:20.963Z,3.80
2018-02-16T03:39:48.466Z,3.70
2018-02-16T03:42:15.982Z,3.70
2018-02-16T03:44:43.577Z,3.70
2018-02-16T03:47:11.099Z,3.60
2018-02-16T03:49:39.427Z,3.60
2018-02-16T03:52:06.946Z,3.60
2018-02-16T03:54:35.214Z,3.60
2018-02-16T03:57:03.511Z,3.50
2018-02-16T03:59:31.783Z,3.40
2018-02-16T04:02:00.062Z,3.40
2018-02-16T04:04:28.359Z,3.40
2018-02-16T04:06:55.875Z,3.40
2018-02-16T04:09:23.369Z,3.30
2018-02-16T04:11:50.878Z,3.30
2018-02-16T04:14:18.391Z,3.30
2018-02-16T04:16:45.945Z,3.30
2018-02-16T04:19:13.465Z,3.30
2018-02-16T04:21:41.001Z,3.30
2018-02-16T04:24:08.503Z,3.40
2018-02-16T04:26:36.796Z,3.20
2018-02-16T04:29:04.298Z,3.20
2018-02-16T04:31:31.813Z,3.20
2018-02-16T04:33:59.370Z,3.10
2018-02-16T04:36:26.886Z,3.10
2018-02-16T04:38:54.377Z,3.10
2018-02-16T04:41:22.654Z,2.90
2018-02-16T04:43:50.943Z,2.90
2018-02-16T04:46:18.461Z,2.90
2018-02-16T04:48:46.053Z,2.90
2018-02-16T04:51:13.565Z,2.90
2018-02-16T04:53:41.077Z,2.90
2018-02-16T04:56:08.578Z,2.80
2018-02-16T04:58:36.099Z,2.90
2018-02-16T05:01:03.602Z,2.90
2018-02-16T05:03:31.114Z,2.90
2018-02-16T05:05:58.610Z,2.80
2018-02-16T05:08:26.128Z,2.80
2018-02-16T05:10:53.631Z,2.80
2018-02-16T05:13:21.142Z,2.80
2018-02-16T05:15:48.646Z,2.80
2018-02-16T05:18:16.159Z,2.70
2018-02-16T05:20:43.709Z,2.70
2018-02-16T05:23:11.217Z,2.70
2018-02-16T05:25:38.726Z,2.70
2018-02-16T05:28:06.243Z,2.70
2018-02-16T05:30:33.850Z,2.70
2018-02-16T05:33:01.364Z,2.60
2018-02-16T05:35:28.858Z,2.60
2018-02-16T05:37:56.374Z,2.60
2018-02-16T05:40:23.874Z,2.50
2018-02-16T05:42:51.450Z,2.50
2018-02-16T05:45:18.968Z,2.50
2018-02-16T05:47:48.240Z,2.60
2018-02-16T05:50:16.086Z,2.60
2018-02-16T05:52:43.661Z,2.70
2018-02-16T05:55:11.158Z,2.70
2018-02-16T05:57:39.429Z,2.70
2018-02-16T06:00:07.689Z,2.70
2018-02-16T06:02:35.198Z,2.70
2018-02-16T06:05:02.696Z,2.70
2018-02-16T06:07:30.202Z,2.70
2018-02-16T06:09:57.698Z,2.60
2018-02-16T06:12:25.206Z,2.60
2018-02-16T06:14:53.466Z,2.60
2018-02-16T06:17:21.741Z,2.60
2018-02-16T06:19:49.239Z,2.60
2018-02-16T06:22:16.751Z,2.60
2018-02-16T06:24:44.246Z,2.60
2018-02-16T06:27:11.753Z,2.60
2018-02-16T06:29:39.242Z,2.60
2018-02-16T06:32:07.522Z,2.40
2018-02-16T06:34:35.780Z,2.40
2018-02-16T06:37:03.294Z,2.40
2018-02-16T06:39:30.785Z,2.40
2018-02-16T06:41:58.295Z,2.50
2018-02-16T06:44:25.785Z,2.50
2018-02-16T06:46:53.270Z,2.40
2018-02-16T06:49:20.779Z,2.40
2018-02-16T06:51:48.269Z,2.50
2018-02-16T06:54:15.783Z,2.50
2018-02-16T06:56:43.274Z,2.40
2018-02-16T06:59:10.781Z,2.40
2018-02-16T07:01:38.278Z,2.40
2018-02-16T07:04:06.549Z,2.50
2018-02-16T07:06:34.042Z,2.50
2018-02-16T07:09:01.550Z,2.50
2018-02-16T07:11:29.050Z,2.40
2018-02-16T07:13:56.563Z,2.40
2018-02-16T07:16:24.093Z,2.40
2018-02-16T07:18:51.644Z,2.30
2018-02-16T07:21:19.926Z,2.30
2018-02-16T07:23:48.220Z,2.30
2018-02-16T07:26:15.725Z,2.30
2018-02-16T07:28:43.238Z,2.30
2018-02-16T07:31:10.729Z,2.30
2018-02-16T07:33:38.237Z,2.30
2018-02-16T07:36:06.507Z,2.20
2018-02-16T07:38:34.782Z,2.30
2018-02-16T07:41:03.035Z,2.30
2018-02-16T07:43:30.551Z,2.30
2018-02-16T07:45:58.042Z,2.20
2018-02-16T07:48:25.571Z,2.20
2018-02-16T07:50:53.086Z,2.20
2018-02-16T07:53:21.361Z,2.30
2018-02-16T07:55:49.618Z,2.40
2018-02-16T07:58:17.125Z,2.40
2018-02-16T08:00:44.618Z,2.40
2018-02-16T08:03:12.138Z,2.50
2018-02-16T08:05:39.637Z,2.50
2018-02-16T08:08:07.147Z,2.50
2018-02-16T08:10:34.638Z,2.50
2018-02-16T08:13:02.146Z,2.40
2018-02-16T08:15:30.405Z,2.60
2018-02-16T08:17:57.914Z,2.60
2018-02-16T08:20:25.412Z,2.50
2018-02-16T08:22:52.927Z,2.50
2018-02-16T08:25:20.425Z,2.60
2018-02-16T08:27:47.943Z,2.60
2018-02-16T08:30:15.434Z,2.50
2018-02-16T08:32:42.941Z,2.50
2018-02-16T08:35:11.204Z,2.50
2018-02-16T08:37:39.473Z,2.50
2018-02-16T08:40:07.730Z,2.50
2018-02-16T08:42:35.217Z,2.50
2018-02-16T08:45:03.490Z,2.50
2018-02-16T08:47:31.821Z,2.60
2018-02-16T08:49:59.354Z,2.60
2018-02-16T08:52:26.859Z,2.60
2018-02-16T08:54:54.386Z,2.60
2018-02-16T08:57:21.884Z,2.60
2018-02-16T08:59:49.742Z,2.70
2018-02-16T09:02:17.243Z,2.70
2018-02-16T09:04:44.750Z,2.80
2018-02-16T09:07:12.248Z,2.80
2018-02-16T09:09:40.525Z,2.80
2018-02-16T09:12:08.782Z,2.80
2018-02-16T09:14:36.285Z,2.70
2018-02-16T09:17:03.781Z,2.80
2018-02-16T09:19:31.290Z,2.80
2018-02-16T09:21:58.814Z,2.80
2018-02-16T09:24:26.498Z,2.80
2018-02-16T09:26:53.994Z,2.70
2018-02-16T09:29:21.510Z,2.80
2018-02-16T09:31:49.006Z,2.80
2018-02-16T09:34:16.517Z,2.90
2018-02-16T09:36:44.802Z,3.00
2018-02-16T09:39:16.070Z,3.10
2018-02-16T09:41:43.567Z,3.10
2018-02-16T09:44:11.073Z,2.90
2018-02-16T09:46:38.567Z,3.00
2018-02-16T09:49:06.078Z,2.90
2018-02-16T09:51:34.346Z,3.00
2018-02-16T09:54:02.621Z,3.20
2018-02-16T09:56:30.878Z,3.30
2018-02-16T09:58:58.398Z,3.30
2018-02-16T10:01:25.890Z,3.40
2018-02-16T10:03:53.399Z,3.30
2018-02-16T10:06:20.893Z,3.30
2018-02-16T10:08:48.401Z,3.20
2018-02-16T10:11:15.889Z,3.20
2018-02-16T10:13:43.398Z,3.40
2018-02-16T10:16:11.660Z,3.30
2018-02-16T10:18:39.239Z,3.30
2018-02-16T10:21:07.522Z,3.20
2018-02-16T10:23:35.051Z,3.10
2018-02-16T10:26:02.594Z,3.20
2018-02-16T10:28:30.114Z,3.10
2018-02-16T10:30:57.605Z,3.20
2018-02-16T10:33:25.114Z,3.20
2018-02-16T10:35:53.374Z,3.50
2018-02-16T10:38:21.647Z,3.30
2018-02-16T10:40:49.158Z,3.30
2018-02-16T10:43:16.654Z,3.20
2018-02-16T10:45:44.167Z,3.40
2018-02-16T10:48:11.653Z,3.20
2018-02-16T10:50:39.161Z,3.10
2018-02-16T10:53:06.657Z,3.20
2018-02-16T10:55:34.169Z,3.30
2018-02-16T10:58:02.428Z,3.40
2018-02-16T11:00:36.449Z,3.40
2018-02-16T11:03:10.446Z,3.40
2018-02-16T11:05:44.461Z,3.50
2018-02-16T11:08:18.559Z,3.70
2018-02-16T11:10:46.074Z,3.60
2018-02-16T11:13:13.573Z,3.60
2018-02-16T11:15:41.086Z,3.70
2018-02-16T11:18:08.573Z,4.00
2018-02-16T11:20:36.077Z,4.20
2018-02-16T11:23:04.334Z,4.00
2018-02-16T11:25:32.610Z,4.00
2018-02-16T11:28:00.871Z,4.00
2018-02-16T11:30:28.379Z,3.90
2018-02-16T11:32:55.878Z,4.00
2018-02-16T11:35:23.389Z,4.00
2018-02-16T11:37:50.881Z,4.10
2018-02-16T11:40:18.534Z,4.30
2018-02-16T11:42:45.911Z,4.50
2018-02-16T11:45:13.422Z,4.50
2018-02-16T11:47:40.938Z,4.60
2018-02-16T11:50:09.359Z,4.30
2018-02-16T11:52:37.891Z,4.20
2018-02-16T11:55:05.482Z,4.20
2018-02-16T11:57:33.750Z,4.20
2018-02-16T12:00:02.018Z,4.10
2018-02-16T12:02:29.535Z,4.00
2018-02-16T12:04:57.034Z,4.10
2018-02-16T12:07:25.318Z,4.00
2018-02-16T12:09:53.986Z,4.00
2018-02-16T12:12:21.582Z,4.00
2018-02-16T12:14:49.069Z,4.00
2018-02-16T12:17:16.603Z,4.30
2018-02-16T12:19:44.099Z,4.30
2018-02-16T12:22:11.606Z,4.20
2018-02-16T12:24:39.861Z,4.10
2018-02-16T12:27:07.374Z,4.10
2018-02-16T12:29:34.866Z,4.00
2018-02-16T12:32:02.378Z,4.00
2018-02-16T12:34:29.961Z,4.00
2018-02-16T12:36:57.438Z,4.10
2018-02-16T12:39:25.037Z,4.20
2018-02-16T12:41:52.551Z,4.20
2018-02-16T12:44:20.052Z,4.30
2018-02-16T12:46:47.582Z,4.40
2018-02-16T12:49:15.078Z,4.40
2018-02-16T12:51:42.582Z,4.60
2018-02-16T12:54:10.187Z,4.70
2018-02-16T12:56:37.690Z,4.60
2018-02-16T12:59:05.197Z,4.60
2018-02-16T13:01:33.462Z,4.80
2018-02-16T13:04:01.750Z,4.80
2018-02-16T13:06:30.015Z,4.50
2018-02-16T13:08:58.314Z,4.40
2018-02-16T13:11:25.912Z,4.40
2018-02-16T13:13:53.405Z,4.20
2018-02-16T13:16:21.662Z,4.30
2018-02-16T13:18:49.211Z,4.20
2018-02-16T13:21:18.343Z,4.20
2018-02-16T13:23:45.933Z,4.20
2018-02-16T13:26:13.485Z,4.10
2018-02-16T13:28:41.038Z,4.10
2018-02-16T13:31:08.604Z,4.20
2018-02-16T13:33:36.154Z,4.10
2018-02-16T13:36:03.648Z,4.10
2018-02-16T13:38:31.159Z,4.10
2018-02-16T13:40:59.510Z,4.10
2018-02-16T13:43:27.018Z,4.00
2018-02-16T13:45:54.510Z,4.00
2018-02-16T13:48:22.122Z,4.00
2018-02-16T13:50:49.622Z,3.90
2018-02-16T13:53:17.129Z,3.90
2018-02-16T13:55:45.394Z,4.00
2018-02-16T13:58:13.694Z,3.90
2018-02-16T14:00:41.190Z,3.80
2018-02-16T14:03:08.706Z,4.00
2018-02-16T14:05:36.218Z,4.00
2018-02-16T14:08:03.710Z,4.00
2018-02-16T14:10:31.990Z,4.00
2018-02-16T14:13:00.249Z,3.90
2018-02-16T14:15:28.535Z,3.90
2018-02-16T14:17:56.794Z,3.90
2018-02-16T14:20:24.306Z,3.80
2018-02-16T14:22:51.797Z,3.90
2018-02-16T14:25:19.306Z,3.90
2018-02-16T14:27:46.797Z,3.90
2018-02-16T14:30:14.309Z,4.00
2018-02-16T14:32:42.562Z,3.90
2018-02-16T14:35:10.834Z,3.80
2018-02-16T14:37:38.329Z,3.80
2018-02-16T14:40:05.838Z,3.70
2018-02-16T14:42:33.343Z,3.70
2018-02-16T14:45:00.895Z,3.60
2018-02-16T14:47:28.458Z,3.60
2018-02-16T14:49:56.858Z,3.60
2018-02-16T14:52:25.188Z,3.60
2018-02-16T14:54:53.716Z,3.60
2018-02-16T14:57:21.287Z,3.50
2018-02-16T14:59:49.762Z,3.60
2018-02-16T15:02:17.298Z,3.60
2018-02-16T15:04:44.849Z,3.60
2018-02-16T15:07:12.362Z,3.60
2018-02-16T15:09:41.362Z,3.60
2018-02-16T15:12:09.948Z,3.70
2018-02-16T15:14:37.450Z,3.70
2018-02-16T15:17:04.961Z,3.80
2018-02-16T15:19:32.454Z,3.80
2018-02-16T15:22:00.018Z,3.70
2018-02-16T15:24:27.538Z,3.70
2018-02-16T15:26:55.134Z,3.60
2018-02-16T15:29:22.634Z,3.60
2018-02-16T15:31:50.160Z,3.50
2018-02-16T15:34:17.663Z,3.50
2018-02-16T15:36:45.265Z,3.40
2018-02-16T15:39:12.774Z,3.30
2018-02-16T15:41:40.294Z,3.20
2018-02-16T15:44:07.797Z,3.20
2018-02-16T15:46:35.318Z,3.10
2018-02-16T15:49:02.818Z,3.20
2018-02-16T15:51:30.309Z,3.10
2018-02-16T15:53:57.831Z,3.10
2018-02-16T15:56:25.325Z,3.10
2018-02-16T15:58:52.849Z,3.00
2018-02-16T16:01:20.354Z,2.90
2018-02-16T16:03:47.869Z,3.00
2018-02-16T16:06:15.471Z,3.00
2018-02-16T16:08:42.986Z,2.90
2018-02-16T16:11:10.492Z,2.90
2018-02-16T16:13:38.017Z,2.90
2018-02-16T16:16:06.287Z,2.90
2018-02-16T16:18:34.573Z,2.80
2018-02-16T16:21:03.153Z,2.80
2018-02-16T16:23:31.462Z,2.80
2018-02-16T16:25:58.994Z,2.80
2018-02-16T16:28:27.307Z,2.80
2018-02-16T16:30:54.834Z,2.80
2018-02-16T16:33:23.145Z,2.70
2018-02-16T16:35:50.655Z,2.70
2018-02-16T16:38:18.176Z,2.70
2018-02-16T16:40:45.698Z,2.70
2018-02-16T16:43:13.581Z,2.70
2018-02-16T16:45:41.131Z,2.60
2018-02-16T16:48:08.658Z,2.70
2018-02-16T16:50:36.936Z,2.50
2018-02-16T16:53:05.198Z,2.50
2018-02-16T16:55:32.798Z,2.50
2018-02-16T16:58:00.304Z,2.50
2018-02-16T17:00:27.830Z,2.50
2018-02-16T17:02:55.334Z,2.50
2018-02-16T17:05:22.850Z,2.40
2018-02-16T17:07:50.349Z,2.40
2018-02-16T17:10:17.874Z,2.40
2018-02-16T17:12:45.388Z,2.50
2018-02-16T17:15:13.777Z,2.50
2018-02-16T17:17:41.273Z,2.50
2018-02-16T17:20:08.789Z,2.40
2018-02-16T17:22:36.295Z,2.40
2018-02-16T17:25:03.814Z,2.40
2018-02-16T17:27:31.313Z,2.40
2018-02-16T17:29:58.825Z,2.40
2018-02-16T17:32:26.326Z,2.40
2018-02-16T17:34:53.933Z,2.50
2018-02-16T17:37:22.193Z,2.40
2018-02-16T17:39:49.715Z,2.40
2018-02-16T17:42:17.222Z,2.30
2018-02-16T17:44:45.514Z,2.30
2018-02-16T17:47:13.078Z,2.30
2018-02-16T17:49:40.626Z,2.30
2018-02-16T17:52:09.305Z,2.20
2018-02-16T17:54:36.939Z,2.20
2018-02-16T17:57:04.508Z,2.30
2018-02-16T17:59:32.051Z,2.30
2018-02-16T18:01:59.561Z,2.30
2018-02-16T18:04:27.082Z,2.30
2018-02-16T18:06:54.590Z,2.20
2018-02-16T18:09:22.113Z,2.20
2018-02-16T18:11:50.374Z,2.20
2018-02-16T18:14:17.895Z,2.20
2018-02-16T18:16:45.390Z,2.20
2018-02-16T18:19:12.944Z,2.20
2018-02-16T18:21:40.434Z,2.20
2018-02-16T18:24:08.318Z,2.20
2018-02-16T18:26:35.837Z,2.10
2018-02-16T18:29:04.110Z,2.00
2018-02-16T18:31:32.393Z,1.90
2018-02-16T18:34:00.666Z,1.90
2018-02-16T18:36:28.969Z,1.80
2018-02-16T18:38:56.466Z,1.80
2018-02-16T18:41:23.977Z,1.80
2018-02-16T18:43:51.475Z,1.80
2018-02-16T18:46:18.994Z,1.80
2018-02-16T18:48:46.498Z,1.80
2018-02-16T18:51:14.018Z,1.90
2018-02-16T18:53:41.522Z,1.90
2018-02-16T18:56:09.047Z,1.90
2018-02-16T18:58:37.002Z,1.90
2018-02-16T19:01:05.269Z,1.90
2018-02-16T19:03:32.781Z,1.80
2018-02-16T19:06:00.306Z,1.80
2018-02-16T19:08:27.814Z,1.80
2018-02-16T19:10:55.420Z,1.70
2018-02-16T19:13:22.982Z,1.80
2018-02-16T19:15:50.513Z,1.80
2018-02-16T19:18:18.789Z,1.70
2018-02-16T19:20:47.116Z,1.80
2018-02-16T19:23:14.694Z,1.80
2018-02-16T19:25:42.240Z,1.80
2018-02-16T19:28:09.770Z,1.80
2018-02-16T19:30:37.433Z,1.80
2018-02-16T19:33:05.192Z,1.80
2018-02-16T19:35:32.796Z,1.70
2018-02-16T19:38:00.290Z,1.70
2018-02-16T19:40:27.815Z,1.60
2018-02-16T19:42:55.320Z,1.60
2018-02-16T19:45:22.847Z,1.60
2018-02-16T19:47:51.122Z,1.40
2018-02-16T19:50:19.600Z,1.50
2018-02-16T19:52:47.147Z,1.50
2018-02-16T19:55:15.170Z,1.50
2018-02-16T19:57:43.517Z,1.50
2018-02-16T20:00:12.043Z,1.40
2018-02-16T20:02:39.581Z,1.40
2018-02-16T20:05:07.293Z,1.40
2018-02-16T20:07:35.594Z,1.30
2018-02-16T20:10:04.162Z,1.30
2018-02-16T20:12:32.098Z,1.30
2018-02-16T20:14:59.699Z,1.40
2018-02-16T20:17:27.555Z,1.40
2018-02-16T20:19:55.288Z,1.40
2018-02-16T20:22:22.847Z,1.40
2018-02-16T20:24:50.732Z,1.40
2018-02-16T20:27:18.314Z,1.40
2018-02-16T20:29:46.232Z,1.40
2018-02-16T20:32:14.590Z,1.40
2018-02-16T20:34:42.362Z,1.40
2018-02-16T20:37:09.929Z,1.40
2018-02-16T20:39:37.426Z,1.50
2018-02-16T20:42:04.958Z,1.50
2018-02-16T20:44:32.461Z,1.50
2018-02-16T20:47:00.758Z,1.60
2018-02-16T20:49:28.275Z,1.60
2018-02-16T20:51:55.799Z,1.60
2018-02-16T20:54:23.310Z,1.70
2018-02-16T20:56:50.842Z,1.70
2018-02-16T20:59:18.354Z,1.70
2018-02-16T21:01:45.878Z,1.70
2018-02-16T21:04:13.382Z,1.60
2018-02-16T21:06:40.914Z,1.70
2018-02-16T21:09:09.178Z,1.70
2018-02-16T21:11:37.471Z,1.70
2018-02-16T21:14:04.986Z,1.70
2018-02-16T21:16:32.506Z,1.70
2018-02-16T21:19:00.007Z,1.70
2018-02-16T21:21:27.832Z,1.70
2018-02-16T21:23:55.335Z,1.70
2018-02-16T21:26:22.858Z,1.70
2018-02-16T21:28:50.362Z,1.70
2018-02-16T21:31:17.975Z,1.70
2018-02-16T21:33:45.529Z,1.70
2018-02-16T21:36:13.126Z,1.70
2018-02-16T21:38:40.638Z,1.70
2018-02-16T21:41:08.198Z,1.70
2018-02-16T21:43:35.709Z,1.70
2018-02-16T21:46:03.995Z,1.80
2018-02-16T21:48:32.267Z,1.80
2018-02-16T21:50:59.817Z,1.80
2018-02-16T21:53:28.115Z,1.80
2018-02-16T21:55:56.416Z,1.80
2018-02-16T21:58:23.982Z,1.80
2018-02-16T22:00:51.494Z,1.80
2018-02-16T22:03:19.035Z,1.80
2018-02-16T22:05:46.574Z,1.80
2018-02-16T22:08:14.082Z,1.80
2018-02-16T22:10:42.442Z,1.70
2018-02-16T22:13:10.831Z,1.70
2018-02-16T22:15:39.094Z,1.70
2018-02-16T22:18:06.609Z,1.70
2018-02-16T22:20:34.114Z,1.70
2018-02-16T22:23:01.638Z,1.70
2018-02-16T22:25:29.139Z,1.70
2018-02-16T22:27:56.663Z,1.60
2018-02-16T22:30:24.170Z,1.70
2018-02-16T22:32:52.458Z,1.60
2018-02-16T22:35:19.974Z,1.60
2018-02-16T22:37:47.494Z,1.70
2018-02-16T22:40:15.002Z,1.60
2018-02-16T22:42:43.302Z,1.60
2018-02-16T22:45:10.815Z,1.60
2018-02-16T22:47:38.338Z,1.60
2018-02-16T22:50:05.846Z,1.70
2018-02-16T22:52:33.375Z,1.70
2018-02-16T22:55:01.278Z,1.70
2018-02-16T22:57:28.809Z,1.60
2018-02-16T22:59:56.648Z,1.60
2018-02-16T23:02:24.467Z,1.70
2018-02-16T23:04:51.975Z,1.70
2018-02-16T23:07:19.501Z,1.60
2018-02-16T23:09:47.790Z,1.60
2018-02-16T23:12:15.317Z,1.60
2018-02-16T23:14:42.831Z,1.60
2018-02-16T23:17:10.373Z,1.60
2018-02-16T23:19:37.873Z,1.60
2018-02-16T23:22:05.850Z,1.50
2018-02-16T23:24:33.349Z,1.60
2018-02-16T23:27:00.879Z,1.60
2018-02-16T23:29:29.149Z,1.60
2018-02-16T23:31:56.677Z,1.50
2018-02-16T23:34:24.950Z,1.60
2018-02-16T23:36:52.469Z,1.60
2018-02-16T23:39:19.974Z,1.60
2018-02-16T23:41:47.498Z,1.60
2018-02-16T23:44:15.323Z,1.60
2018-02-16T23:46:42.843Z,1.60
2018-02-16T23:49:11.120Z,1.60
2018-02-16T23:51:39.408Z,1.70
2018-02-16T23:54:06.922Z,1.60
2018-02-16T23:56:34.455Z,1.60
2018-02-16T23:59:02.033Z,1.70
